sensor_id;sensor_type;location;lat;lon;timestamp;temperature;humidity
16517;DHT22;8371;52.272;9.746;2023-08-01T00:00:48;20.00;79.20
16517;DHT22;8371;52.272;9.746;2023-08-01T00:03:14;20.00;79.40
16517;DHT22;8371;52.272;9.746;2023-08-01T00:05:40;20.00;79.30
16517;DHT22;8371;52.272;9.746;2023-08-01T00:08:13;19.90;79.10
16517;DHT22;8371;52.272;9.746;2023-08-01T00:10:44;19.90;79.00
16517;DHT22;8371;52.272;9.746;2023-08-01T00:13:08;19.90;79.20
16517;DHT22;8371;52.272;9.746;2023-08-01T00:15:34;19.90;79.00
16517;DHT22;8371;52.272;9.746;2023-08-01T00:18:00;19.90;79.00
16517;DHT22;8371;52.272;9.746;2023-08-01T00:20:25;19.90;79.00
16517;DHT22;8371;52.272;9.746;2023-08-01T00:22:51;19.90;79.30
16517;DHT22;8371;52.272;9.746;2023-08-01T00:25:18;19.80;79.10
16517;DHT22;8371;52.272;9.746;2023-08-01T00:27:43;19.90;79.20
16517;DHT22;8371;52.272;9.746;2023-08-01T00:30:09;19.90;79.30
16517;DHT22;8371;52.272;9.746;2023-08-01T00:32:36;19.80;79.10
16517;DHT22;8371;52.272;9.746;2023-08-01T00:35:02;19.80;79.30
16517;DHT22;8371;52.272;9.746;2023-08-01T00:37:28;19.80;79.20
16517;DHT22;8371;52.272;9.746;2023-08-01T00:39:54;19.80;79.40
16517;DHT22;8371;52.272;9.746;2023-08-01T00:42:20;19.80;79.40
16517;DHT22;8371;52.272;9.746;2023-08-01T00:44:45;19.80;79.40
16517;DHT22;8371;52.272;9.746;2023-08-01T00:47:13;19.80;79.40
16517;DHT22;8371;52.272;9.746;2023-08-01T00:49:39;19.80;79.40
16517;DHT22;8371;52.272;9.746;2023-08-01T00:52:05;19.80;79.40
16517;DHT22;8371;52.272;9.746;2023-08-01T00:54:31;19.80;79.50
16517;DHT22;8371;52.272;9.746;2023-08-01T00:57:00;19.80;80.00
16517;DHT22;8371;52.272;9.746;2023-08-01T00:59:26;19.80;79.50
16517;DHT22;8371;52.272;9.746;2023-08-01T01:01:52;19.90;79.70
16517;DHT22;8371;52.272;9.746;2023-08-01T01:04:17;19.80;79.60
16517;DHT22;8371;52.272;9.746;2023-08-01T01:07:03;19.80;79.70
16517;DHT22;8371;52.272;9.746;2023-08-01T01:09:31;19.90;79.70
16517;DHT22;8371;52.272;9.746;2023-08-01T01:11:58;19.80;79.60
16517;DHT22;8371;52.272;9.746;2023-08-01T01:14:26;19.90;79.80
16517;DHT22;8371;52.272;9.746;2023-08-01T01:16:51;19.90;79.80
16517;DHT22;8371;52.272;9.746;2023-08-01T01:19:17;19.90;79.90
16517;DHT22;8371;52.272;9.746;2023-08-01T01:21:43;19.90;80.00
16517;DHT22;8371;52.272;9.746;2023-08-01T01:24:10;19.80;79.70
16517;DHT22;8371;52.272;9.746;2023-08-01T01:26:38;19.90;79.90
16517;DHT22;8371;52.272;9.746;2023-08-01T01:29:05;19.80;80.10
16517;DHT22;8371;52.272;9.746;2023-08-01T01:31:32;19.80;80.10
16517;DHT22;8371;52.272;9.746;2023-08-01T01:33:58;19.90;80.10
16517;DHT22;8371;52.272;9.746;2023-08-01T01:36:24;19.90;80.50
16517;DHT22;8371;52.272;9.746;2023-08-01T01:38:50;19.80;80.10
16517;DHT22;8371;52.272;9.746;2023-08-01T01:41:15;19.80;80.40
16517;DHT22;8371;52.272;9.746;2023-08-01T01:43:41;19.80;80.40
16517;DHT22;8371;52.272;9.746;2023-08-01T01:46:07;19.80;80.30
16517;DHT22;8371;52.272;9.746;2023-08-01T01:48:33;19.80;80.30
16517;DHT22;8371;52.272;9.746;2023-08-01T01:50:58;19.80;80.30
16517;DHT22;8371;52.272;9.746;2023-08-01T01:53:24;19.80;80.30
16517;DHT22;8371;52.272;9.746;2023-08-01T01:55:50;19.80;80.40
16517;DHT22;8371;52.272;9.746;2023-08-01T01:58:15;19.80;80.50
16517;DHT22;8371;52.272;9.746;2023-08-01T02:00:41;19.70;80.40
16517;DHT22;8371;52.272;9.746;2023-08-01T02:03:07;19.70;80.50
16517;DHT22;8371;52.272;9.746;2023-08-01T02:05:36;19.70;80.40
16517;DHT22;8371;52.272;9.746;2023-08-01T02:08:02;19.70;80.70
16517;DHT22;8371;52.272;9.746;2023-08-01T02:10:30;19.70;80.70
16517;DHT22;8371;52.272;9.746;2023-08-01T02:12:56;19.70;80.70
16517;DHT22;8371;52.272;9.746;2023-08-01T02:15:21;19.70;80.80
16517;DHT22;8371;52.272;9.746;2023-08-01T02:17:47;19.70;80.70
16517;DHT22;8371;52.272;9.746;2023-08-01T02:20:13;19.60;80.80
16517;DHT22;8371;52.272;9.746;2023-08-01T02:22:38;19.70;81.00
16517;DHT22;8371;52.272;9.746;2023-08-01T02:25:05;19.70;80.90
16517;DHT22;8371;52.272;9.746;2023-08-01T02:27:30;19.70;81.10
16517;DHT22;8371;52.272;9.746;2023-08-01T02:29:56;19.60;81.10
16517;DHT22;8371;52.272;9.746;2023-08-01T02:32:22;19.60;81.30
16517;DHT22;8371;52.272;9.746;2023-08-01T02:34:47;19.60;81.30
16517;DHT22;8371;52.272;9.746;2023-08-01T02:37:13;19.60;81.50
16517;DHT22;8371;52.272;9.746;2023-08-01T02:39:39;19.60;81.50
16517;DHT22;8371;52.272;9.746;2023-08-01T02:42:05;19.60;81.40
16517;DHT22;8371;52.272;9.746;2023-08-01T02:44:30;19.60;81.40
16517;DHT22;8371;52.272;9.746;2023-08-01T02:46:56;19.60;81.40
16517;DHT22;8371;52.272;9.746;2023-08-01T02:49:22;19.60;81.50
16517;DHT22;8371;52.272;9.746;2023-08-01T02:51:47;19.60;81.50
16517;DHT22;8371;52.272;9.746;2023-08-01T02:54:13;19.60;81.60
16517;DHT22;8371;52.272;9.746;2023-08-01T02:56:39;19.50;81.60
16517;DHT22;8371;52.272;9.746;2023-08-01T02:59:10;19.50;81.60
16517;DHT22;8371;52.272;9.746;2023-08-01T03:01:37;19.60;81.90
16517;DHT22;8371;52.272;9.746;2023-08-01T03:04:04;19.60;81.70
16517;DHT22;8371;52.272;9.746;2023-08-01T03:06:31;19.60;81.90
16517;DHT22;8371;52.272;9.746;2023-08-01T03:08:57;19.60;81.70
16517;DHT22;8371;52.272;9.746;2023-08-01T03:11:23;19.60;81.90
16517;DHT22;8371;52.272;9.746;2023-08-01T03:13:48;19.60;81.70
16517;DHT22;8371;52.272;9.746;2023-08-01T03:16:14;19.60;81.70
16517;DHT22;8371;52.272;9.746;2023-08-01T03:18:40;19.50;81.70
16517;DHT22;8371;52.272;9.746;2023-08-01T03:21:06;19.50;81.80
16517;DHT22;8371;52.272;9.746;2023-08-01T03:23:31;19.50;81.90
16517;DHT22;8371;52.272;9.746;2023-08-01T03:25:57;19.50;81.90
16517;DHT22;8371;52.272;9.746;2023-08-01T03:28:23;19.50;81.90
16517;DHT22;8371;52.272;9.746;2023-08-01T03:30:49;19.50;82.00
16517;DHT22;8371;52.272;9.746;2023-08-01T03:33:16;19.50;82.00
16517;DHT22;8371;52.272;9.746;2023-08-01T03:35:42;19.50;82.10
16517;DHT22;8371;52.272;9.746;2023-08-01T03:38:07;19.50;82.20
16517;DHT22;8371;52.272;9.746;2023-08-01T03:40:33;19.50;82.20
16517;DHT22;8371;52.272;9.746;2023-08-01T03:42:59;19.50;82.20
16517;DHT22;8371;52.272;9.746;2023-08-01T03:45:24;19.50;82.20
16517;DHT22;8371;52.272;9.746;2023-08-01T03:47:50;19.50;82.20
16517;DHT22;8371;52.272;9.746;2023-08-01T03:50:16;19.50;82.30
16517;DHT22;8371;52.272;9.746;2023-08-01T03:52:42;19.50;82.20
16517;DHT22;8371;52.272;9.746;2023-08-01T03:55:08;19.50;82.30
16517;DHT22;8371;52.272;9.746;2023-08-01T03:57:34;19.50;82.30
16517;DHT22;8371;52.272;9.746;2023-08-01T04:00:00;19.50;82.30
16517;DHT22;8371;52.272;9.746;2023-08-01T04:02:26;19.50;82.30
16517;DHT22;8371;52.272;9.746;2023-08-01T04:04:51;19.50;82.30
16517;DHT22;8371;52.272;9.746;2023-08-01T04:07:18;19.50;82.30
16517;DHT22;8371;52.272;9.746;2023-08-01T04:09:44;19.50;82.30
16517;DHT22;8371;52.272;9.746;2023-08-01T04:12:10;19.50;82.40
16517;DHT22;8371;52.272;9.746;2023-08-01T04:14:35;19.50;82.40
16517;DHT22;8371;52.272;9.746;2023-08-01T04:17:01;19.40;82.40
16517;DHT22;8371;52.272;9.746;2023-08-01T04:19:27;19.40;82.40
16517;DHT22;8371;52.272;9.746;2023-08-01T04:21:53;19.40;82.50
16517;DHT22;8371;52.272;9.746;2023-08-01T04:24:18;19.40;82.60
16517;DHT22;8371;52.272;9.746;2023-08-01T04:26:44;19.40;82.50
16517;DHT22;8371;52.272;9.746;2023-08-01T04:29:10;19.40;82.40
16517;DHT22;8371;52.272;9.746;2023-08-01T04:31:35;19.40;82.50
16517;DHT22;8371;52.272;9.746;2023-08-01T04:34:01;19.30;82.50
16517;DHT22;8371;52.272;9.746;2023-08-01T04:36:27;19.40;82.70
16517;DHT22;8371;52.272;9.746;2023-08-01T04:38:52;19.40;82.60
16517;DHT22;8371;52.272;9.746;2023-08-01T04:41:18;19.40;82.80
16517;DHT22;8371;52.272;9.746;2023-08-01T04:43:44;19.40;82.60
16517;DHT22;8371;52.272;9.746;2023-08-01T04:46:09;19.40;83.30
16517;DHT22;8371;52.272;9.746;2023-08-01T04:48:35;19.30;82.60
16517;DHT22;8371;52.272;9.746;2023-08-01T04:51:00;19.30;82.60
16517;DHT22;8371;52.272;9.746;2023-08-01T04:53:26;19.30;82.60
16517;DHT22;8371;52.272;9.746;2023-08-01T04:55:52;19.30;82.70
16517;DHT22;8371;52.272;9.746;2023-08-01T04:58:17;19.40;82.90
16517;DHT22;8371;52.272;9.746;2023-08-01T05:00:43;19.30;83.00
16517;DHT22;8371;52.272;9.746;2023-08-01T05:03:09;19.40;82.90
16517;DHT22;8371;52.272;9.746;2023-08-01T05:05:34;19.40;83.00
16517;DHT22;8371;52.272;9.746;2023-08-01T05:08:00;19.40;83.00
16517;DHT22;8371;52.272;9.746;2023-08-01T05:10:26;19.40;83.00
16517;DHT22;8371;52.272;9.746;2023-08-01T05:12:52;19.40;83.10
16517;DHT22;8371;52.272;9.746;2023-08-01T05:15:17;19.40;83.10
16517;DHT22;8371;52.272;9.746;2023-08-01T05:17:43;19.40;83.40
16517;DHT22;8371;52.272;9.746;2023-08-01T05:20:09;19.40;83.20
16517;DHT22;8371;52.272;9.746;2023-08-01T05:22:35;19.50;83.30
16517;DHT22;8371;52.272;9.746;2023-08-01T05:25:01;19.50;83.30
16517;DHT22;8371;52.272;9.746;2023-08-01T05:27:27;19.50;83.40
16517;DHT22;8371;52.272;9.746;2023-08-01T05:29:53;19.60;83.40
16517;DHT22;8371;52.272;9.746;2023-08-01T05:32:18;19.60;83.40
16517;DHT22;8371;52.272;9.746;2023-08-01T05:34:44;19.50;83.30
16517;DHT22;8371;52.272;9.746;2023-08-01T05:37:10;19.60;84.00
16517;DHT22;8371;52.272;9.746;2023-08-01T05:39:35;19.60;83.50
16517;DHT22;8371;52.272;9.746;2023-08-01T05:42:01;19.70;83.60
16517;DHT22;8371;52.272;9.746;2023-08-01T05:44:27;19.70;83.60
16517;DHT22;8371;52.272;9.746;2023-08-01T05:46:52;19.70;83.60
16517;DHT22;8371;52.272;9.746;2023-08-01T05:49:18;19.80;83.60
16517;DHT22;8371;52.272;9.746;2023-08-01T05:51:44;19.90;83.50
16517;DHT22;8371;52.272;9.746;2023-08-01T05:54:09;19.90;83.40
16517;DHT22;8371;52.272;9.746;2023-08-01T05:56:35;19.90;83.20
16517;DHT22;8371;52.272;9.746;2023-08-01T05:59:01;20.00;83.20
16517;DHT22;8371;52.272;9.746;2023-08-01T06:01:26;20.00;83.10
16517;DHT22;8371;52.272;9.746;2023-08-01T06:03:52;20.10;83.20
16517;DHT22;8371;52.272;9.746;2023-08-01T06:06:18;20.10;83.70
16517;DHT22;8371;52.272;9.746;2023-08-01T06:08:44;20.10;82.90
16517;DHT22;8371;52.272;9.746;2023-08-01T06:11:09;20.20;82.70
16517;DHT22;8371;52.272;9.746;2023-08-01T06:13:35;20.20;82.70
16517;DHT22;8371;52.272;9.746;2023-08-01T06:16:01;20.20;82.70
16517;DHT22;8371;52.272;9.746;2023-08-01T06:18:26;20.20;82.50
16517;DHT22;8371;52.272;9.746;2023-08-01T06:20:52;20.20;83.20
16517;DHT22;8371;52.272;9.746;2023-08-01T06:23:18;20.30;82.30
16517;DHT22;8371;52.272;9.746;2023-08-01T06:25:44;20.30;82.30
16517;DHT22;8371;52.272;9.746;2023-08-01T06:28:09;20.30;82.20
16517;DHT22;8371;52.272;9.746;2023-08-01T06:30:35;20.30;82.20
16517;DHT22;8371;52.272;9.746;2023-08-01T06:33:01;20.20;82.00
16517;DHT22;8371;52.272;9.746;2023-08-01T06:35:26;20.30;82.00
16517;DHT22;8371;52.272;9.746;2023-08-01T06:37:52;20.30;81.90
16517;DHT22;8371;52.272;9.746;2023-08-01T06:40:18;20.20;81.80
16517;DHT22;8371;52.272;9.746;2023-08-01T06:42:43;20.20;81.80
16517;DHT22;8371;52.272;9.746;2023-08-01T06:45:09;20.20;81.50
16517;DHT22;8371;52.272;9.746;2023-08-01T06:47:35;20.10;81.20
16517;DHT22;8371;52.272;9.746;2023-08-01T06:50:00;20.10;81.20
16517;DHT22;8371;52.272;9.746;2023-08-01T06:52:26;20.00;81.10
16517;DHT22;8371;52.272;9.746;2023-08-01T06:54:52;20.00;81.30
16517;DHT22;8371;52.272;9.746;2023-08-01T06:57:17;19.90;81.60
16517;DHT22;8371;52.272;9.746;2023-08-01T06:59:43;19.80;81.90
16517;DHT22;8371;52.272;9.746;2023-08-01T07:02:09;19.80;82.00
16517;DHT22;8371;52.272;9.746;2023-08-01T07:04:34;19.80;82.40
16517;DHT22;8371;52.272;9.746;2023-08-01T07:07:00;19.80;82.60
16517;DHT22;8371;52.272;9.746;2023-08-01T07:09:26;19.90;83.00
16517;DHT22;8371;52.272;9.746;2023-08-01T07:11:51;19.90;83.00
16517;DHT22;8371;52.272;9.746;2023-08-01T07:14:17;20.00;82.90
16517;DHT22;8371;52.272;9.746;2023-08-01T07:16:43;20.10;82.90
16517;DHT22;8371;52.272;9.746;2023-08-01T07:19:08;20.00;82.60
16517;DHT22;8371;52.272;9.746;2023-08-01T07:21:34;20.20;82.50
16517;DHT22;8371;52.272;9.746;2023-08-01T07:24:00;20.20;82.30
16517;DHT22;8371;52.272;9.746;2023-08-01T07:26:26;20.20;82.30
16517;DHT22;8371;52.272;9.746;2023-08-01T07:28:53;20.20;82.20
16517;DHT22;8371;52.272;9.746;2023-08-01T07:31:19;20.30;82.30
16517;DHT22;8371;52.272;9.746;2023-08-01T07:33:44;20.30;82.30
16517;DHT22;8371;52.272;9.746;2023-08-01T07:36:10;20.30;82.30
16517;DHT22;8371;52.272;9.746;2023-08-01T07:38:36;20.40;82.30
16517;DHT22;8371;52.272;9.746;2023-08-01T07:41:03;20.50;82.50
16517;DHT22;8371;52.272;9.746;2023-08-01T07:43:29;20.60;82.50
16517;DHT22;8371;52.272;9.746;2023-08-01T07:45:56;20.60;82.40
16517;DHT22;8371;52.272;9.746;2023-08-01T07:48:22;20.70;82.40
16517;DHT22;8371;52.272;9.746;2023-08-01T07:50:48;20.80;82.10
16517;DHT22;8371;52.272;9.746;2023-08-01T07:53:14;20.90;81.90
16517;DHT22;8371;52.272;9.746;2023-08-01T07:55:39;20.90;81.70
16517;DHT22;8371;52.272;9.746;2023-08-01T07:58:05;21.00;81.60
16517;DHT22;8371;52.272;9.746;2023-08-01T08:00:31;21.00;81.50
16517;DHT22;8371;52.272;9.746;2023-08-01T08:02:56;21.10;81.30
16517;DHT22;8371;52.272;9.746;2023-08-01T08:05:22;21.20;81.20
16517;DHT22;8371;52.272;9.746;2023-08-01T08:07:48;21.20;81.10
16517;DHT22;8371;52.272;9.746;2023-08-01T08:10:13;21.20;80.80
16517;DHT22;8371;52.272;9.746;2023-08-01T08:12:40;21.30;81.00
16517;DHT22;8371;52.272;9.746;2023-08-01T08:15:07;21.30;81.10
16517;DHT22;8371;52.272;9.746;2023-08-01T08:17:32;21.40;81.40
16517;DHT22;8371;52.272;9.746;2023-08-01T08:19:58;21.50;81.60
16517;DHT22;8371;52.272;9.746;2023-08-01T08:22:24;21.60;81.30
16517;DHT22;8371;52.272;9.746;2023-08-01T08:24:49;21.70;81.30
16517;DHT22;8371;52.272;9.746;2023-08-01T08:27:15;21.80;81.00
16517;DHT22;8371;52.272;9.746;2023-08-01T08:29:41;21.90;81.00
16517;DHT22;8371;52.272;9.746;2023-08-01T08:32:07;22.10;81.20
16517;DHT22;8371;52.272;9.746;2023-08-01T08:34:32;22.30;81.10
16517;DHT22;8371;52.272;9.746;2023-08-01T08:36:58;22.40;80.50
16517;DHT22;8371;52.272;9.746;2023-08-01T08:39:24;22.60;80.00
16517;DHT22;8371;52.272;9.746;2023-08-01T08:41:51;22.70;79.40
16517;DHT22;8371;52.272;9.746;2023-08-01T08:44:19;22.80;79.50
16517;DHT22;8371;52.272;9.746;2023-08-01T08:46:53;23.00;79.60
16517;DHT22;8371;52.272;9.746;2023-08-01T08:49:20;23.00;78.90
16517;DHT22;8371;52.272;9.746;2023-08-01T08:51:48;23.20;78.80
16517;DHT22;8371;52.272;9.746;2023-08-01T08:54:16;23.30;78.90
16517;DHT22;8371;52.272;9.746;2023-08-01T08:56:41;23.40;78.60
16517;DHT22;8371;52.272;9.746;2023-08-01T08:59:08;23.50;78.00
16517;DHT22;8371;52.272;9.746;2023-08-01T09:01:36;23.60;77.50
16517;DHT22;8371;52.272;9.746;2023-08-01T09:04:03;23.70;77.00
16517;DHT22;8371;52.272;9.746;2023-08-01T09:09:12;23.80;75.80
16517;DHT22;8371;52.272;9.746;2023-08-01T09:11:41;23.70;75.70
16517;DHT22;8371;52.272;9.746;2023-08-01T09:14:07;23.80;75.60
16517;DHT22;8371;52.272;9.746;2023-08-01T09:16:33;23.60;75.60
16517;DHT22;8371;52.272;9.746;2023-08-01T09:18:59;23.80;76.00
16517;DHT22;8371;52.272;9.746;2023-08-01T09:21:25;23.90;76.20
16517;DHT22;8371;52.272;9.746;2023-08-01T09:23:51;23.90;76.20
16517;DHT22;8371;52.272;9.746;2023-08-01T09:26:19;24.00;75.70
16517;DHT22;8371;52.272;9.746;2023-08-01T09:28:57;24.10;75.10
16517;DHT22;8371;52.272;9.746;2023-08-01T09:31:29;24.10;74.80
16517;DHT22;8371;52.272;9.746;2023-08-01T09:33:55;24.20;74.70
16517;DHT22;8371;52.272;9.746;2023-08-01T09:36:21;24.30;75.50
16517;DHT22;8371;52.272;9.746;2023-08-01T09:38:48;24.40;74.70
16517;DHT22;8371;52.272;9.746;2023-08-01T09:41:18;24.50;74.00
16517;DHT22;8371;52.272;9.746;2023-08-01T09:43:45;24.50;73.20
16517;DHT22;8371;52.272;9.746;2023-08-01T09:46:12;24.50;72.70
16517;DHT22;8371;52.272;9.746;2023-08-01T09:48:38;24.50;72.40
16517;DHT22;8371;52.272;9.746;2023-08-01T09:51:09;24.40;72.70
16517;DHT22;8371;52.272;9.746;2023-08-01T09:53:46;24.40;73.10
16517;DHT22;8371;52.272;9.746;2023-08-01T09:56:04;24.50;73.60
16517;DHT22;8371;52.272;9.746;2023-08-01T09:58:34;24.50;73.60
16517;DHT22;8371;52.272;9.746;2023-08-01T10:01:00;24.70;73.90
16517;DHT22;8371;52.272;9.746;2023-08-01T10:03:28;24.80;73.60
16517;DHT22;8371;52.272;9.746;2023-08-01T10:05:55;25.00;72.80
16517;DHT22;8371;52.272;9.746;2023-08-01T10:08:21;25.20;72.90
16517;DHT22;8371;52.272;9.746;2023-08-01T10:10:48;25.30;72.80
16517;DHT22;8371;52.272;9.746;2023-08-01T10:13:14;25.50;72.10
16517;DHT22;8371;52.272;9.746;2023-08-01T10:15:40;25.60;70.70
16517;DHT22;8371;52.272;9.746;2023-08-01T10:18:07;25.80;70.50
16517;DHT22;8371;52.272;9.746;2023-08-01T10:20:36;25.80;70.40
16517;DHT22;8371;52.272;9.746;2023-08-01T10:23:04;26.00;70.30
16517;DHT22;8371;52.272;9.746;2023-08-01T10:25:30;26.10;70.20
16517;DHT22;8371;52.272;9.746;2023-08-01T10:28:00;26.30;70.40
16517;DHT22;8371;52.272;9.746;2023-08-01T10:30:27;26.40;70.10
16517;DHT22;8371;52.272;9.746;2023-08-01T10:32:55;26.50;69.10
16517;DHT22;8371;52.272;9.746;2023-08-01T10:35:36;26.50;68.00
16517;DHT22;8371;52.272;9.746;2023-08-01T10:38:08;26.60;66.80
16517;DHT22;8371;52.272;9.746;2023-08-01T10:40:40;26.50;66.30
16517;DHT22;8371;52.272;9.746;2023-08-01T10:43:21;26.40;66.20
16517;DHT22;8371;52.272;9.746;2023-08-01T10:45:47;26.30;66.60
16517;DHT22;8371;52.272;9.746;2023-08-01T10:48:13;26.20;66.90
16517;DHT22;8371;52.272;9.746;2023-08-01T10:50:39;26.20;67.30
16517;DHT22;8371;52.272;9.746;2023-08-01T10:53:08;26.20;67.40
16517;DHT22;8371;52.272;9.746;2023-08-01T10:55:45;26.20;67.00
16517;DHT22;8371;52.272;9.746;2023-08-01T10:58:12;26.20;67.10
16517;DHT22;8371;52.272;9.746;2023-08-01T11:00:38;26.20;67.40
16517;DHT22;8371;52.272;9.746;2023-08-01T11:03:04;26.20;66.80
16517;DHT22;8371;52.272;9.746;2023-08-01T11:05:30;26.30;66.20
16517;DHT22;8371;52.272;9.746;2023-08-01T11:07:57;26.30;65.50
16517;DHT22;8371;52.272;9.746;2023-08-01T11:10:25;26.40;66.40
16517;DHT22;8371;52.272;9.746;2023-08-01T11:12:51;26.60;66.40
16517;DHT22;8371;52.272;9.746;2023-08-01T11:15:19;26.70;66.30
16517;DHT22;8371;52.272;9.746;2023-08-01T11:17:50;26.90;65.10
16517;DHT22;8371;52.272;9.746;2023-08-01T11:20:17;27.10;64.80
16517;DHT22;8371;52.272;9.746;2023-08-01T11:22:52;27.20;64.10
16517;DHT22;8371;52.272;9.746;2023-08-01T11:25:20;27.30;63.90
16517;DHT22;8371;52.272;9.746;2023-08-01T11:27:45;27.40;63.10
16517;DHT22;8371;52.272;9.746;2023-08-01T11:30:11;27.50;62.70
16517;DHT22;8371;52.272;9.746;2023-08-01T11:32:39;27.50;61.90
16517;DHT22;8371;52.272;9.746;2023-08-01T11:35:05;27.40;61.30
16517;DHT22;8371;52.272;9.746;2023-08-01T11:37:32;27.40;60.80
16517;DHT22;8371;52.272;9.746;2023-08-01T11:39:58;27.30;60.30
16517;DHT22;8371;52.272;9.746;2023-08-01T11:42:24;27.20;60.60
16517;DHT22;8371;52.272;9.746;2023-08-01T11:44:50;27.10;60.80
16517;DHT22;8371;52.272;9.746;2023-08-01T11:47:17;27.00;60.70
16517;DHT22;8371;52.272;9.746;2023-08-01T11:49:48;26.80;60.00
16517;DHT22;8371;52.272;9.746;2023-08-01T11:52:24;26.70;60.50
16517;DHT22;8371;52.272;9.746;2023-08-01T11:54:50;26.50;60.10
16517;DHT22;8371;52.272;9.746;2023-08-01T11:57:16;26.40;59.70
16517;DHT22;8371;52.272;9.746;2023-08-01T11:59:54;26.20;60.20
16517;DHT22;8371;52.272;9.746;2023-08-01T12:02:25;26.00;60.80
16517;DHT22;8371;52.272;9.746;2023-08-01T12:04:52;25.90;60.90
16517;DHT22;8371;52.272;9.746;2023-08-01T12:07:19;25.80;61.00
16517;DHT22;8371;52.272;9.746;2023-08-01T12:09:55;25.70;61.40
16517;DHT22;8371;52.272;9.746;2023-08-01T12:12:22;25.70;61.70
16517;DHT22;8371;52.272;9.746;2023-08-01T12:14:48;25.60;61.80
16517;DHT22;8371;52.272;9.746;2023-08-01T12:17:13;25.60;62.00
16517;DHT22;8371;52.272;9.746;2023-08-01T12:19:39;25.70;62.20
16517;DHT22;8371;52.272;9.746;2023-08-01T12:22:05;25.70;62.10
16517;DHT22;8371;52.272;9.746;2023-08-01T12:24:31;25.80;61.90
16517;DHT22;8371;52.272;9.746;2023-08-01T12:26:58;25.80;61.20
16517;DHT22;8371;52.272;9.746;2023-08-01T12:29:24;25.80;60.50
16517;DHT22;8371;52.272;9.746;2023-08-01T12:31:49;25.80;60.60
16517;DHT22;8371;52.272;9.746;2023-08-01T12:34:15;25.80;60.40
16517;DHT22;8371;52.272;9.746;2023-08-01T12:36:41;25.80;60.70
16517;DHT22;8371;52.272;9.746;2023-08-01T12:39:06;25.80;61.30
16517;DHT22;8371;52.272;9.746;2023-08-01T12:41:34;25.80;61.60
16517;DHT22;8371;52.272;9.746;2023-08-01T12:44:00;25.90;61.10
16517;DHT22;8371;52.272;9.746;2023-08-01T12:46:25;25.90;60.90
16517;DHT22;8371;52.272;9.746;2023-08-01T12:48:51;25.90;60.90
16517;DHT22;8371;52.272;9.746;2023-08-01T12:51:17;25.90;60.80
16517;DHT22;8371;52.272;9.746;2023-08-01T12:53:42;26.00;60.80
16517;DHT22;8371;52.272;9.746;2023-08-01T12:56:08;25.90;60.80
16517;DHT22;8371;52.272;9.746;2023-08-01T12:58:34;25.90;60.10
16517;DHT22;8371;52.272;9.746;2023-08-01T13:01:02;25.90;59.60
16517;DHT22;8371;52.272;9.746;2023-08-01T13:03:27;25.80;59.70
16517;DHT22;8371;52.272;9.746;2023-08-01T13:05:53;25.70;59.60
16517;DHT22;8371;52.272;9.746;2023-08-01T13:08:19;25.70;59.80
16517;DHT22;8371;52.272;9.746;2023-08-01T13:10:45;25.60;60.00
16517;DHT22;8371;52.272;9.746;2023-08-01T13:13:11;25.50;60.20
16517;DHT22;8371;52.272;9.746;2023-08-01T13:15:37;25.50;60.60
16517;DHT22;8371;52.272;9.746;2023-08-01T13:18:02;25.60;61.20
16517;DHT22;8371;52.272;9.746;2023-08-01T13:20:28;25.60;61.30
16517;DHT22;8371;52.272;9.746;2023-08-01T13:22:54;25.70;61.60
16517;DHT22;8371;52.272;9.746;2023-08-01T13:25:19;25.80;61.60
16517;DHT22;8371;52.272;9.746;2023-08-01T13:27:45;26.00;60.80
16517;DHT22;8371;52.272;9.746;2023-08-01T13:30:11;26.10;60.40
16517;DHT22;8371;52.272;9.746;2023-08-01T13:32:41;26.10;59.30
16517;DHT22;8371;52.272;9.746;2023-08-01T13:35:07;26.10;60.20
16517;DHT22;8371;52.272;9.746;2023-08-01T13:37:33;26.10;59.60
16517;DHT22;8371;52.272;9.746;2023-08-01T13:39:58;26.00;59.20
16517;DHT22;8371;52.272;9.746;2023-08-01T13:42:26;25.80;59.20
16517;DHT22;8371;52.272;9.746;2023-08-01T13:44:54;25.70;59.20
16517;DHT22;8371;52.272;9.746;2023-08-01T13:47:19;25.40;59.10
16517;DHT22;8371;52.272;9.746;2023-08-01T13:49:45;25.20;59.40
16517;DHT22;8371;52.272;9.746;2023-08-01T13:52:11;24.90;59.60
16517;DHT22;8371;52.272;9.746;2023-08-01T13:54:37;24.60;59.90
16517;DHT22;8371;52.272;9.746;2023-08-01T13:57:02;24.30;60.40
16517;DHT22;8371;52.272;9.746;2023-08-01T13:59:28;24.10;61.90
16517;DHT22;8371;52.272;9.746;2023-08-01T14:01:54;24.00;63.60
16517;DHT22;8371;52.272;9.746;2023-08-01T14:04:20;24.00;64.70
16517;DHT22;8371;52.272;9.746;2023-08-01T14:06:46;24.10;65.10
16517;DHT22;8371;52.272;9.746;2023-08-01T14:09:12;24.20;65.40
16517;DHT22;8371;52.272;9.746;2023-08-01T14:11:39;24.30;65.70
16517;DHT22;8371;52.272;9.746;2023-08-01T14:14:04;24.50;65.80
16517;DHT22;8371;52.272;9.746;2023-08-01T14:16:30;24.70;65.90
16517;DHT22;8371;52.272;9.746;2023-08-01T14:18:57;25.00;65.20
16517;DHT22;8371;52.272;9.746;2023-08-01T14:21:23;25.20;64.30
16517;DHT22;8371;52.272;9.746;2023-08-01T14:23:49;25.30;63.90
16517;DHT22;8371;52.272;9.746;2023-08-01T14:26:14;25.50;63.30
16517;DHT22;8371;52.272;9.746;2023-08-01T14:28:40;25.60;63.10
16517;DHT22;8371;52.272;9.746;2023-08-01T14:31:06;25.60;62.50
16517;DHT22;8371;52.272;9.746;2023-08-01T14:33:33;25.70;62.30
16517;DHT22;8371;52.272;9.746;2023-08-01T14:35:59;25.70;62.10
16517;DHT22;8371;52.272;9.746;2023-08-01T14:38:25;25.70;61.90
16517;DHT22;8371;52.272;9.746;2023-08-01T14:40:54;25.70;61.60
16517;DHT22;8371;52.272;9.746;2023-08-01T14:43:20;25.70;61.70
16517;DHT22;8371;52.272;9.746;2023-08-01T14:45:46;25.70;61.40
16517;DHT22;8371;52.272;9.746;2023-08-01T14:48:11;25.70;61.70
16517;DHT22;8371;52.272;9.746;2023-08-01T14:50:38;25.60;61.90
16517;DHT22;8371;52.272;9.746;2023-08-01T14:53:04;25.70;61.60
16517;DHT22;8371;52.272;9.746;2023-08-01T14:55:32;25.80;61.80
16517;DHT22;8371;52.272;9.746;2023-08-01T14:57:58;25.90;61.60
16517;DHT22;8371;52.272;9.746;2023-08-01T15:00:23;26.00;61.60
16517;DHT22;8371;52.272;9.746;2023-08-01T15:02:50;26.10;60.90
16517;DHT22;8371;52.272;9.746;2023-08-01T15:05:16;26.20;60.90
16517;DHT22;8371;52.272;9.746;2023-08-01T15:07:41;26.20;60.80
16517;DHT22;8371;52.272;9.746;2023-08-01T15:10:07;26.30;60.70
16517;DHT22;8371;52.272;9.746;2023-08-01T15:12:33;26.40;60.40
16517;DHT22;8371;52.272;9.746;2023-08-01T15:14:59;26.40;59.80
16517;DHT22;8371;52.272;9.746;2023-08-01T15:17:25;26.50;59.90
16517;DHT22;8371;52.272;9.746;2023-08-01T15:19:51;26.50;60.10
16517;DHT22;8371;52.272;9.746;2023-08-01T15:22:18;26.60;60.50
16517;DHT22;8371;52.272;9.746;2023-08-01T15:24:45;26.70;60.20
16517;DHT22;8371;52.272;9.746;2023-08-01T15:27:11;26.90;59.90
16517;DHT22;8371;52.272;9.746;2023-08-01T15:29:38;26.90;59.30
16517;DHT22;8371;52.272;9.746;2023-08-01T15:32:04;27.00;59.20
16517;DHT22;8371;52.272;9.746;2023-08-01T15:34:30;27.00;59.20
16517;DHT22;8371;52.272;9.746;2023-08-01T15:36:56;27.00;58.90
16517;DHT22;8371;52.272;9.746;2023-08-01T15:39:21;27.10;59.60
16517;DHT22;8371;52.272;9.746;2023-08-01T15:41:47;27.10;58.60